Weather observations for the past three days for
Port Isabel, Port Isabel-Cameron County Airport
Imperial (Metric)
Date Time (cdt) Wind (mph) Vis. (mi.) Weather Sky Cond. Temperature (ºF) Relative Humidity Wind Chill (°F) Heat Index (°F) Pressure Precipitation (in)
Air Dwpt 6 hour altimeter (in) sea level (mb) 1 hr 3 hr 6 hr
Max. Min.
31 02:53 S 6 10.00 Fair CLR 82 77 85% 90 29.94 1013.8
31 01:53 S 8 10.00 Fair CLR 82 77 85% 90 29.95 1014.2
31 00:53 S 9 10.00 Fair CLR 82.9 78.1 88 82.9 85% 93 29.96 1014.5
30 23:53 S 10 10.00 Fair CLR 84 77 80% 94 29.96 1014.5
30 22:53 SE 13 10.00 Mostly Cloudy BKN024 BKN029 BKN040 84 78.1 82% 95 29.96 1014.3
30 21:53 SE 9 10.00 Partly Cloudy FEW021 SCT027 84 79 85% 96 29.94 1013.7
30 20:53 SE 12 10.00 Fair CLR 84.9 79 82% 98 29.92 1013.0
30 19:53 SE 13 10.00 Fair CLR 86 77 75% 97 29.91 1012.6
30 18:53 SE 16 10.00 A Few Clouds FEW022 88 77 91 81 70% 100 29.9 1012.3 0.04
30 17:53 SE 17 10.00 Fair CLR 90 79 70% 106 29.9 1012.3
30 16:53 SE 18 10.00 Fair CLR 91 78.1 66% 106 29.9 1012.3
30 15:53 E 21 10.00 Fair and Breezy CLR 90 75.9 63% 102 29.91 1012.9 0.04
30 14:53 SE 18 10.00 Fair CLR 90 79 70% 106 29.94 1013.9
30 13:53 E 14 10.00 Fair CLR 84.9 81 88% 100 29.97 1014.7 0.04
30 11:53 SE 13 10.00 Partly Cloudy FEW027 FEW032 SCT042 89.1 78.1 70% 103 29.99 1015.6
30 10:53 SE 10 10.00 Mostly Cloudy SCT030 BKN038 90 75.9 63% 102 30 1015.7
30 09:53 S 9 10.00 A Few Clouds FEW023 87.1 75.9 70% 98 29.99 1015.5
30 08:53 SE 7 10.00 Fair CLR 84 77 80% 94 29.99 1015.4
30 07:53 SE 3 10.00 Fair CLR 80.1 77 90% 86 29.97 1014.9
30 06:53 SE 5 10.00 Fair CLR 79 75.9 82.9 78.1 90% 83 29.96 1014.4
30 05:53 SE 5 10.00 Fair CLR 79 75.9 90% 83 29.96 1014.4
30 04:53 S 5 10.00 Fair CLR 79 75.9 90% 83 29.96 1014.5
30 03:53 Calm 10.00 Fair CLR 80.1 75.9 87% 85 29.97 1014.7
30 02:53 S 6 10.00 Fair CLR 81 77 88% 88 29.98 1015.0
30 01:53 S 5 10.00 Partly Cloudy SCT026 82 78.1 88% 91 29.98 1015.3
30 00:53 S 7 10.00 Fair CLR 82.9 77 87.1 82.9 82% 92 29.99 1015.4
29 23:53 SE 9 10.00 Fair CLR 84 78.1 82% 95 29.99 1015.6
29 22:53 SE 9 10.00 A Few Clouds FEW026 84 77 80% 94 29.99 1015.5
29 21:53 SE 10 10.00 Fair CLR 84.9 77 77% 95 29.99 1015.4
29 20:53 SE 10 10.00 Fair CLR 84.9 77 77% 95 29.97 1014.7
29 19:53 SE 10 10.00 Fair CLR 86 77 75% 97 29.95 1014.1
29 18:53 E 16 10.00 Fair CLR 87.1 77 91.9 87.1 72% 99 29.94 1013.9
29 17:53 E 16 10.00 Fair CLR 89.1 77 68% 102 29.94 1013.7
29 16:53 E 16 10.00 Fair CLR 90 75.9 63% 102 29.95 1014.2
29 14:53 E 16 10.00 Fair CLR 91 77 64% 105 29.99 1015.5
29 13:53 E 13 10.00 Fair CLR 88 77 70% 100 30.02 1016.5
29 12:53 E 12 10.00 Thunderstorm in Vicinity CLR 88 75.9 90 78.1 68% 99 30.04 1017.2 0.04
29 11:53 E 14 G 20 10.00 Thunderstorm in Vicinity CLR 89.1 77 68% 102 30.05 1017.4 0.01
29 10:53 Vrbl 5 3.00 Thunderstorm in Vicinity Light Rain FEW020 BKN055 OVC070 82.9 75 77% 90 30.06 1017.7 0.03
29 09:53 E 10 10.00 Overcast BKN021 OVC029 89.1 78.1 70% 103 30.04 1017.0
29 08:53 SE 8 10.00 Fair CLR 84.9 78.1 80% 97 30.03 1016.7
29 07:53 SE 5 10.00 Fair CLR 80.1 77 90% 86 30.01 1016.0
29 06:53 Calm 10.00 Fair CLR 79 75.9 81 77 90% 83 29.99 1015.6
29 05:53 SE 5 10.00 Fair CLR 78.1 75 90% 81 29.99 1015.4
29 04:53 Calm 10.00 Fair CLR 80.1 75.9 87% 85 29.99 1015.3
29 03:53 Calm 10.00 A Few Clouds FEW021 80.1 75.9 87% 85 29.98 1015.2
29 02:53 S 5 10.00 Fair CLR 80.1 75.9 87% 85 29.98 1015.0
29 01:53 S 6 10.00 Fair CLR 81 77 88% 88 29.98 1015.1
29 00:53 S 3 10.00 Fair CLR 81 77 88 81 88% 88 30 1015.8
28 23:53 S 6 10.00 Fair CLR 82.9 77 82% 92 30 1016.0
28 22:53 SE 8 10.00 Fair CLR 82.9 77 82% 92 30 1015.9
28 21:53 SE 8 10.00 Fair CLR 84 78.1 82% 95 30 1015.8
28 20:53 SE 14 10.00 Fair CLR 84.9 77 77% 95 29.98 1015.0
28 19:53 SE 14 10.00 Fair CLR 86 75.9 72% 96 29.96 1014.3
28 18:53 SE 15 10.00 Fair CLR 88 78.1 93 88 73% 102 29.95 1014.0
28 17:53 E 17 10.00 Fair CLR 89.1 78.1 70% 103 29.95 1014.0
28 16:53 SE 17 10.00 Fair CLR 90 77 66% 103 29.95 1014.1
28 15:53 E 20 10.00 Fair CLR 91 77 64% 105 29.96 1014.6
28 14:53 E 16 10.00 Fair CLR 91.9 77 62% 106 29.98 1015.3
28 13:53 E 18 10.00 Fair CLR 91.9 77 62% 106 30 1015.7
28 12:53 E 16 10.00 Fair CLR 91.9 75.9 91.9 78.1 60% 104 30.01 1016.3
28 11:53 E 15 10.00 Fair CLR 91 77 64% 105 30.03 1016.7
28 10:53 Vrbl 5 10.00 Fair CLR 90 73 58% 98 30.03 1016.7
28 09:53 S 9 10.00 Fair CLR 88 75.9 68% 99 30.01 1016.1
28 08:53 S 7 9.00 Fair CLR 84 78.1 82% 95 30 1015.9
28 07:53 SE 5 10.00 Fair CLR 80.1 77 90% 86 29.99 1015.6
28 06:53 SE 5 10.00 Fair CLR 78.1 75 81 75.9 90% 81 29.97 1015.0
28 05:53 Calm 10.00 Fair CLR 77 73.9 90% 78 29.96 1014.4
28 04:53 SE 5 10.00 Fair CLR 78.1 75 90% 81 29.96 1014.4
28 03:53 S 7 10.00 Fair CLR 79 75.9 90% 83 29.96 1014.4
Date Time (cdt) Wind (mph) Vis. (mi.) Weather Sky Cond. Air Dwpt Max. Min. Relative Humidity Wind Chill (°F) Heat Index (°F) altimeter (in) sea level (mb) 1 hr 3 hr 6 hr
6 hour
Temperature (ºF) Pressure Precipitation (in)